sensor_id;sensor_type;location;lat;lon;timestamp;temperature;humidity
63094;DHT22;49183;51.380;0.098;2022-08-14T00:02:05;20.20;56.20
63094;DHT22;49183;51.380;0.098;2022-08-14T00:05:11;20.30;56.60
63094;DHT22;49183;51.380;0.098;2022-08-14T00:08:12;20.30;56.90
63094;DHT22;49183;51.380;0.098;2022-08-14T00:11:31;20.30;56.80
63094;DHT22;49183;51.380;0.098;2022-08-14T00:14:32;20.30;56.80
63094;DHT22;49183;51.380;0.098;2022-08-14T00:17:42;20.30;57.20
63094;DHT22;49183;51.380;0.098;2022-08-14T00:20:44;20.30;57.70
63094;DHT22;49183;51.380;0.098;2022-08-14T00:23:45;20.30;58.30
63094;DHT22;49183;51.380;0.098;2022-08-14T00:26:48;20.20;59.20
63094;DHT22;49183;51.380;0.098;2022-08-14T00:29:49;20.00;59.90
63094;DHT22;49183;51.380;0.098;2022-08-14T00:32:50;19.80;60.80
63094;DHT22;49183;51.380;0.098;2022-08-14T00:36:02;19.80;61.80
63094;DHT22;49183;51.380;0.098;2022-08-14T00:39:24;19.80;62.20
63094;DHT22;49183;51.380;0.098;2022-08-14T00:42:26;19.80;62.30
63094;DHT22;49183;51.380;0.098;2022-08-14T00:45:42;19.90;62.10
63094;DHT22;49183;51.380;0.098;2022-08-14T00:48:46;20.00;61.70
63094;DHT22;49183;51.380;0.098;2022-08-14T00:51:48;20.00;61.60
63094;DHT22;49183;51.380;0.098;2022-08-14T00:54:52;19.90;61.50
63094;DHT22;49183;51.380;0.098;2022-08-14T00:57:54;19.90;61.40
63094;DHT22;49183;51.380;0.098;2022-08-14T01:01:18;19.90;61.60
63094;DHT22;49183;51.380;0.098;2022-08-14T01:04:20;19.80;61.70
63094;DHT22;49183;51.380;0.098;2022-08-14T01:07:40;19.70;61.90
63094;DHT22;49183;51.380;0.098;2022-08-14T01:10:43;19.60;62.10
63094;DHT22;49183;51.380;0.098;2022-08-14T01:13:45;19.60;62.50
63094;DHT22;49183;51.380;0.098;2022-08-14T01:17:14;19.50;62.60
63094;DHT22;49183;51.380;0.098;2022-08-14T01:20:15;19.50;62.90
63094;DHT22;49183;51.380;0.098;2022-08-14T01:23:39;19.50;63.30
63094;DHT22;49183;51.380;0.098;2022-08-14T01:26:42;19.60;63.30
63094;DHT22;49183;51.380;0.098;2022-08-14T01:29:48;19.60;63.40
63094;DHT22;49183;51.380;0.098;2022-08-14T01:32:50;19.70;63.80
63094;DHT22;49183;51.380;0.098;2022-08-14T01:35:58;19.70;63.90
63094;DHT22;49183;51.380;0.098;2022-08-14T01:39:12;19.70;64.00
63094;DHT22;49183;51.380;0.098;2022-08-14T01:42:18;19.70;64.10
63094;DHT22;49183;51.380;0.098;2022-08-14T01:45:30;19.70;64.10
63094;DHT22;49183;51.380;0.098;2022-08-14T01:49:15;19.70;64.20
63094;DHT22;49183;51.380;0.098;2022-08-14T01:52:21;19.60;64.20
63094;DHT22;49183;51.380;0.098;2022-08-14T01:55:42;19.60;64.20
63094;DHT22;49183;51.380;0.098;2022-08-14T01:58:46;19.40;64.30
63094;DHT22;49183;51.380;0.098;2022-08-14T02:01:49;19.40;64.50
63094;DHT22;49183;51.380;0.098;2022-08-14T02:04:55;19.30;64.60
63094;DHT22;49183;51.380;0.098;2022-08-14T02:07:56;19.20;64.70
63094;DHT22;49183;51.380;0.098;2022-08-14T02:10:58;19.10;64.80
63094;DHT22;49183;51.380;0.098;2022-08-14T02:14:17;19.00;65.30
63094;DHT22;49183;51.380;0.098;2022-08-14T02:17:18;18.90;65.30
63094;DHT22;49183;51.380;0.098;2022-08-14T02:20:19;18.80;65.50
63094;DHT22;49183;51.380;0.098;2022-08-14T02:23:21;18.70;65.70
63094;DHT22;49183;51.380;0.098;2022-08-14T02:26:29;18.60;65.90
63094;DHT22;49183;51.380;0.098;2022-08-14T02:29:50;18.50;66.20
63094;DHT22;49183;51.380;0.098;2022-08-14T02:32:54;18.40;66.40
63094;DHT22;49183;51.380;0.098;2022-08-14T02:35:56;18.30;66.70
63094;DHT22;49183;51.380;0.098;2022-08-14T02:39:18;18.30;66.90
63094;DHT22;49183;51.380;0.098;2022-08-14T02:42:21;18.10;67.20
63094;DHT22;49183;51.380;0.098;2022-08-14T02:45:25;18.00;67.40
63094;DHT22;49183;51.380;0.098;2022-08-14T02:48:31;17.90;67.50
63094;DHT22;49183;51.380;0.098;2022-08-14T02:51:52;17.90;67.60
63094;DHT22;49183;51.380;0.098;2022-08-14T02:55:13;17.80;67.70
63094;DHT22;49183;51.380;0.098;2022-08-14T02:58:15;17.80;68.00
63094;DHT22;49183;51.380;0.098;2022-08-14T03:01:19;17.70;68.10
63094;DHT22;49183;51.380;0.098;2022-08-14T03:04:31;17.60;68.40
63094;DHT22;49183;51.380;0.098;2022-08-14T03:07:31;17.50;68.50
63094;DHT22;49183;51.380;0.098;2022-08-14T03:10:38;17.50;68.70
63094;DHT22;49183;51.380;0.098;2022-08-14T03:13:45;17.40;68.90
63094;DHT22;49183;51.380;0.098;2022-08-14T03:16:46;17.40;69.10
63094;DHT22;49183;51.380;0.098;2022-08-14T03:19:47;17.50;69.00
63094;DHT22;49183;51.380;0.098;2022-08-14T03:22:51;17.50;68.90
63094;DHT22;49183;51.380;0.098;2022-08-14T03:25:53;17.60;68.90
63094;DHT22;49183;51.380;0.098;2022-08-14T03:28:54;17.70;68.70
63094;DHT22;49183;51.380;0.098;2022-08-14T03:31:59;17.70;68.70
63094;DHT22;49183;51.380;0.098;2022-08-14T03:35:00;17.80;68.60
63094;DHT22;49183;51.380;0.098;2022-08-14T03:38:09;17.80;68.60
63094;DHT22;49183;51.380;0.098;2022-08-14T03:41:30;17.80;68.40
63094;DHT22;49183;51.380;0.098;2022-08-14T03:44:31;17.80;68.00
63094;DHT22;49183;51.380;0.098;2022-08-14T03:47:54;17.90;67.70
63094;DHT22;49183;51.380;0.098;2022-08-14T03:51:16;18.10;67.20
63094;DHT22;49183;51.380;0.098;2022-08-14T03:54:21;18.30;66.50
63094;DHT22;49183;51.380;0.098;2022-08-14T03:57:22;18.40;66.00
63094;DHT22;49183;51.380;0.098;2022-08-14T04:00:27;18.50;65.70
63094;DHT22;49183;51.380;0.098;2022-08-14T04:03:30;18.50;65.30
63094;DHT22;49183;51.380;0.098;2022-08-14T04:06:35;18.60;65.20
63094;DHT22;49183;51.380;0.098;2022-08-14T04:09:38;18.60;65.10
63094;DHT22;49183;51.380;0.098;2022-08-14T04:12:39;18.50;65.10
63094;DHT22;49183;51.380;0.098;2022-08-14T04:15:40;18.60;65.00
63094;DHT22;49183;51.380;0.098;2022-08-14T04:18:51;18.60;65.00
63094;DHT22;49183;51.380;0.098;2022-08-14T04:21:53;18.50;64.90
63094;DHT22;49183;51.380;0.098;2022-08-14T04:24:58;18.50;64.80
63094;DHT22;49183;51.380;0.098;2022-08-14T04:28:03;18.40;64.90
63094;DHT22;49183;51.380;0.098;2022-08-14T04:31:25;18.40;64.90
63094;DHT22;49183;51.380;0.098;2022-08-14T04:34:46;18.40;64.70
63094;DHT22;49183;51.380;0.098;2022-08-14T04:37:53;18.50;64.60
63094;DHT22;49183;51.380;0.098;2022-08-14T04:41:24;18.50;64.50
63094;DHT22;49183;51.380;0.098;2022-08-14T04:44:43;18.50;64.40
63094;DHT22;49183;51.380;0.098;2022-08-14T04:47:48;18.50;64.30
63094;DHT22;49183;51.380;0.098;2022-08-14T04:51:27;18.40;64.30
63094;DHT22;49183;51.380;0.098;2022-08-14T04:54:42;18.40;64.40
63094;DHT22;49183;51.380;0.098;2022-08-14T04:57:43;18.30;64.50
63094;DHT22;49183;51.380;0.098;2022-08-14T05:00:37;18.10;64.80
63094;DHT22;49183;51.380;0.098;2022-08-14T05:03:38;18.10;65.10
63094;DHT22;49183;51.380;0.098;2022-08-14T05:06:41;17.90;65.30
63094;DHT22;49183;51.380;0.098;2022-08-14T05:09:42;17.80;65.60
63094;DHT22;49183;51.380;0.098;2022-08-14T05:12:44;17.80;65.60
63094;DHT22;49183;51.380;0.098;2022-08-14T05:16:01;17.80;65.70
63094;DHT22;49183;51.380;0.098;2022-08-14T05:18:57;17.70;65.80
63094;DHT22;49183;51.380;0.098;2022-08-14T05:22:10;17.60;66.00
63094;DHT22;49183;51.380;0.098;2022-08-14T05:25:13;17.60;66.20
63094;DHT22;49183;51.380;0.098;2022-08-14T05:28:23;17.60;66.30
63094;DHT22;49183;51.380;0.098;2022-08-14T05:31:24;17.50;66.40
63094;DHT22;49183;51.380;0.098;2022-08-14T05:34:26;17.60;66.50
63094;DHT22;49183;51.380;0.098;2022-08-14T05:37:31;17.60;66.40
63094;DHT22;49183;51.380;0.098;2022-08-14T05:40:32;17.60;66.40
63094;DHT22;49183;51.380;0.098;2022-08-14T05:43:33;17.70;66.50
63094;DHT22;49183;51.380;0.098;2022-08-14T05:46:35;17.70;66.60
63094;DHT22;49183;51.380;0.098;2022-08-14T05:49:36;17.70;66.70
63094;DHT22;49183;51.380;0.098;2022-08-14T05:52:38;17.80;66.70
63094;DHT22;49183;51.380;0.098;2022-08-14T05:55:39;17.80;66.60
63094;DHT22;49183;51.380;0.098;2022-08-14T05:58:40;17.90;66.60
63094;DHT22;49183;51.380;0.098;2022-08-14T06:01:41;18.10;66.50
63094;DHT22;49183;51.380;0.098;2022-08-14T06:04:42;18.10;66.40
63094;DHT22;49183;51.380;0.098;2022-08-14T06:07:44;18.20;66.20
63094;DHT22;49183;51.380;0.098;2022-08-14T06:10:46;18.30;66.10
63094;DHT22;49183;51.380;0.098;2022-08-14T06:13:49;18.30;66.20
63094;DHT22;49183;51.380;0.098;2022-08-14T06:16:58;18.40;66.40
63094;DHT22;49183;51.380;0.098;2022-08-14T06:20:12;18.50;66.50
63094;DHT22;49183;51.380;0.098;2022-08-14T06:23:14;18.70;66.70
63094;DHT22;49183;51.380;0.098;2022-08-14T06:26:16;18.90;66.60
63094;DHT22;49183;51.380;0.098;2022-08-14T06:29:16;19.10;66.50
63094;DHT22;49183;51.380;0.098;2022-08-14T06:32:20;19.30;66.30
63094;DHT22;49183;51.380;0.098;2022-08-14T06:35:25;19.50;66.30
63094;DHT22;49183;51.380;0.098;2022-08-14T06:38:26;19.80;66.10
63094;DHT22;49183;51.380;0.098;2022-08-14T06:41:27;19.90;65.60
63094;DHT22;49183;51.380;0.098;2022-08-14T06:44:45;20.00;65.40
63094;DHT22;49183;51.380;0.098;2022-08-14T06:47:48;20.10;65.30
63094;DHT22;49183;51.380;0.098;2022-08-14T06:50:53;20.20;65.00
63094;DHT22;49183;51.380;0.098;2022-08-14T06:53:57;20.40;64.60
63094;DHT22;49183;51.380;0.098;2022-08-14T06:57:06;20.50;63.90
63094;DHT22;49183;51.380;0.098;2022-08-14T07:00:13;20.80;62.60
63094;DHT22;49183;51.380;0.098;2022-08-14T07:03:17;21.10;61.80
63094;DHT22;49183;51.380;0.098;2022-08-14T07:06:37;21.50;60.30
63094;DHT22;49183;51.380;0.098;2022-08-14T07:09:45;22.00;59.00
63094;DHT22;49183;51.380;0.098;2022-08-14T07:12:46;22.30;58.00
63094;DHT22;49183;51.380;0.098;2022-08-14T07:15:52;22.70;57.20
63094;DHT22;49183;51.380;0.098;2022-08-14T07:18:53;22.90;56.10
63094;DHT22;49183;51.380;0.098;2022-08-14T07:21:54;23.20;55.40
63094;DHT22;49183;51.380;0.098;2022-08-14T07:25:07;23.40;54.70
63094;DHT22;49183;51.380;0.098;2022-08-14T07:28:25;23.60;54.10
63094;DHT22;49183;51.380;0.098;2022-08-14T07:31:29;23.80;53.90
63094;DHT22;49183;51.380;0.098;2022-08-14T07:34:32;23.70;53.30
63094;DHT22;49183;51.380;0.098;2022-08-14T07:37:33;23.70;52.80
63094;DHT22;49183;51.380;0.098;2022-08-14T07:40:38;23.50;52.80
63094;DHT22;49183;51.380;0.098;2022-08-14T07:43:40;23.30;52.70
63094;DHT22;49183;51.380;0.098;2022-08-14T07:46:43;23.30;52.60
63094;DHT22;49183;51.380;0.098;2022-08-14T07:50:03;23.30;52.30
63094;DHT22;49183;51.380;0.098;2022-08-14T07:53:06;23.30;51.70
63094;DHT22;49183;51.380;0.098;2022-08-14T07:56:07;23.30;51.30
63094;DHT22;49183;51.380;0.098;2022-08-14T07:59:29;23.40;51.40
63094;DHT22;49183;51.380;0.098;2022-08-14T08:02:33;23.80;51.30
63094;DHT22;49183;51.380;0.098;2022-08-14T08:05:41;24.10;50.70
63094;DHT22;49183;51.380;0.098;2022-08-14T08:08:43;24.30;49.90
63094;DHT22;49183;51.380;0.098;2022-08-14T08:11:49;24.70;48.80
63094;DHT22;49183;51.380;0.098;2022-08-14T08:15:02;25.00;48.30
63094;DHT22;49183;51.380;0.098;2022-08-14T08:18:04;25.30;47.30
63094;DHT22;49183;51.380;0.098;2022-08-14T08:21:15;25.50;47.10
63094;DHT22;49183;51.380;0.098;2022-08-14T08:24:21;25.70;46.40
63094;DHT22;49183;51.380;0.098;2022-08-14T08:27:22;25.80;45.80
63094;DHT22;49183;51.380;0.098;2022-08-14T08:30:31;26.00;44.80
63094;DHT22;49183;51.380;0.098;2022-08-14T08:33:35;26.10;44.80
63094;DHT22;49183;51.380;0.098;2022-08-14T08:36:40;26.20;44.60
63094;DHT22;49183;51.380;0.098;2022-08-14T08:39:47;26.30;44.40
63094;DHT22;49183;51.380;0.098;2022-08-14T08:42:51;26.50;43.60
63094;DHT22;49183;51.380;0.098;2022-08-14T08:49:09;27.10;42.70
63094;DHT22;49183;51.380;0.098;2022-08-14T08:52:21;27.40;42.20
63094;DHT22;49183;51.380;0.098;2022-08-14T08:55:27;27.50;41.60
63094;DHT22;49183;51.380;0.098;2022-08-14T08:58:29;27.80;41.20
63094;DHT22;49183;51.380;0.098;2022-08-14T09:01:30;28.00;40.40
63094;DHT22;49183;51.380;0.098;2022-08-14T09:04:41;28.20;39.00
63094;DHT22;49183;51.380;0.098;2022-08-14T09:07:42;28.30;38.20
63094;DHT22;49183;51.380;0.098;2022-08-14T09:10:44;28.30;38.40
63094;DHT22;49183;51.380;0.098;2022-08-14T09:13:52;28.40;38.50
63094;DHT22;49183;51.380;0.098;2022-08-14T09:16:55;28.60;38.30
63094;DHT22;49183;51.380;0.098;2022-08-14T09:19:56;28.80;37.80
63094;DHT22;49183;51.380;0.098;2022-08-14T09:22:58;29.00;37.50
63094;DHT22;49183;51.380;0.098;2022-08-14T09:26:02;29.20;37.20
63094;DHT22;49183;51.380;0.098;2022-08-14T09:29:09;29.30;36.70
63094;DHT22;49183;51.380;0.098;2022-08-14T09:32:15;29.30;36.60
63094;DHT22;49183;51.380;0.098;2022-08-14T09:36:22;29.40;36.30
63094;DHT22;49183;51.380;0.098;2022-08-14T09:39:41;29.70;36.30
63094;DHT22;49183;51.380;0.098;2022-08-14T09:45:54;30.20;34.40
63094;DHT22;49183;51.380;0.098;2022-08-14T09:49:06;30.30;33.80
63094;DHT22;49183;51.380;0.098;2022-08-14T09:52:16;30.50;33.60
63094;DHT22;49183;51.380;0.098;2022-08-14T09:55:23;30.60;32.90
63094;DHT22;49183;51.380;0.098;2022-08-14T09:58:43;30.70;32.80
63094;DHT22;49183;51.380;0.098;2022-08-14T10:01:44;30.70;33.60
63094;DHT22;49183;51.380;0.098;2022-08-14T10:04:46;30.80;33.40
63094;DHT22;49183;51.380;0.098;2022-08-14T10:07:49;30.90;33.20
63094;DHT22;49183;51.380;0.098;2022-08-14T10:11:15;31.00;33.20
63094;DHT22;49183;51.380;0.098;2022-08-14T10:14:24;31.00;33.20
63094;DHT22;49183;51.380;0.098;2022-08-14T10:17:25;30.80;33.70
63094;DHT22;49183;51.380;0.098;2022-08-14T10:20:35;30.70;34.10
63094;DHT22;49183;51.380;0.098;2022-08-14T10:23:45;30.70;34.30
63094;DHT22;49183;51.380;0.098;2022-08-14T10:26:53;30.80;34.00
63094;DHT22;49183;51.380;0.098;2022-08-14T10:29:57;30.60;34.50
63094;DHT22;49183;51.380;0.098;2022-08-14T10:33:09;30.50;34.20
63094;DHT22;49183;51.380;0.098;2022-08-14T10:36:10;30.50;33.50
63094;DHT22;49183;51.380;0.098;2022-08-14T10:39:26;30.50;33.60
63094;DHT22;49183;51.380;0.098;2022-08-14T10:42:48;30.80;32.90
63094;DHT22;49183;51.380;0.098;2022-08-14T10:45:58;30.90;33.00
63094;DHT22;49183;51.380;0.098;2022-08-14T10:49:22;31.20;33.40
63094;DHT22;49183;51.380;0.098;2022-08-14T10:52:25;31.40;31.90
63094;DHT22;49183;51.380;0.098;2022-08-14T10:55:37;31.30;31.70
63094;DHT22;49183;51.380;0.098;2022-08-14T10:58:41;31.30;31.70
63094;DHT22;49183;51.380;0.098;2022-08-14T11:01:42;31.50;31.90
63094;DHT22;49183;51.380;0.098;2022-08-14T11:04:43;31.60;32.00
63094;DHT22;49183;51.380;0.098;2022-08-14T11:07:57;31.60;32.20
63094;DHT22;49183;51.380;0.098;2022-08-14T11:11:02;31.70;31.50
63094;DHT22;49183;51.380;0.098;2022-08-14T11:14:05;31.80;31.00
63094;DHT22;49183;51.380;0.098;2022-08-14T11:17:11;32.00;30.70
63094;DHT22;49183;51.380;0.098;2022-08-14T11:20:21;32.30;30.50
63094;DHT22;49183;51.380;0.098;2022-08-14T11:23:35;32.30;29.20
63094;DHT22;49183;51.380;0.098;2022-08-14T11:26:43;32.20;28.50
63094;DHT22;49183;51.380;0.098;2022-08-14T11:29:46;32.20;29.10
63094;DHT22;49183;51.380;0.098;2022-08-14T11:33:08;32.20;30.00
63094;DHT22;49183;51.380;0.098;2022-08-14T11:36:10;32.10;29.70
63094;DHT22;49183;51.380;0.098;2022-08-14T11:39:31;32.00;29.90
63094;DHT22;49183;51.380;0.098;2022-08-14T11:42:32;32.20;29.10
63094;DHT22;49183;51.380;0.098;2022-08-14T11:45:46;32.20;28.70
63094;DHT22;49183;51.380;0.098;2022-08-14T11:48:52;32.40;28.00
63094;DHT22;49183;51.380;0.098;2022-08-14T11:51:56;32.50;27.70
63094;DHT22;49183;51.380;0.098;2022-08-14T11:54:58;32.50;27.40
63094;DHT22;49183;51.380;0.098;2022-08-14T11:58:07;32.20;28.00
63094;DHT22;49183;51.380;0.098;2022-08-14T12:01:10;32.20;28.30
63094;DHT22;49183;51.380;0.098;2022-08-14T12:04:13;32.10;28.50
63094;DHT22;49183;51.380;0.098;2022-08-14T12:07:20;32.20;28.90
63094;DHT22;49183;51.380;0.098;2022-08-14T12:10:21;32.30;28.20
63094;DHT22;49183;51.380;0.098;2022-08-14T12:13:29;32.30;27.80
63094;DHT22;49183;51.380;0.098;2022-08-14T12:16:42;32.40;28.10
63094;DHT22;49183;51.380;0.098;2022-08-14T12:19:45;32.30;28.30
63094;DHT22;49183;51.380;0.098;2022-08-14T12:22:49;32.30;28.90
63094;DHT22;49183;51.380;0.098;2022-08-14T12:26:06;32.30;29.00
63094;DHT22;49183;51.380;0.098;2022-08-14T12:29:27;32.20;28.70
63094;DHT22;49183;51.380;0.098;2022-08-14T12:32:40;32.30;28.80
63094;DHT22;49183;51.380;0.098;2022-08-14T12:35:43;32.60;28.70
63094;DHT22;49183;51.380;0.098;2022-08-14T12:38:44;32.70;28.20
63094;DHT22;49183;51.380;0.098;2022-08-14T12:41:54;32.60;27.90
63094;DHT22;49183;51.380;0.098;2022-08-14T12:45:29;32.70;28.30
63094;DHT22;49183;51.380;0.098;2022-08-14T12:48:32;32.70;27.70
63094;DHT22;49183;51.380;0.098;2022-08-14T12:51:56;32.70;27.80
63094;DHT22;49183;51.380;0.098;2022-08-14T12:55:21;32.80;27.80
63094;DHT22;49183;51.380;0.098;2022-08-14T12:58:49;33.00;27.50
63094;DHT22;49183;51.380;0.098;2022-08-14T13:01:55;33.30;27.30
63094;DHT22;49183;51.380;0.098;2022-08-14T13:05:00;33.60;26.80
63094;DHT22;49183;51.380;0.098;2022-08-14T13:08:04;33.70;26.30
63094;DHT22;49183;51.380;0.098;2022-08-14T13:11:21;33.80;26.70
63094;DHT22;49183;51.380;0.098;2022-08-14T13:14:27;33.80;26.80
63094;DHT22;49183;51.380;0.098;2022-08-14T13:17:31;33.70;26.80
63094;DHT22;49183;51.380;0.098;2022-08-14T13:20:40;33.80;27.20
63094;DHT22;49183;51.380;0.098;2022-08-14T13:23:47;33.90;26.90
63094;DHT22;49183;51.380;0.098;2022-08-14T13:26:53;34.00;26.40
63094;DHT22;49183;51.380;0.098;2022-08-14T13:29:58;33.90;26.70
63094;DHT22;49183;51.380;0.098;2022-08-14T13:33:10;33.80;26.40
63094;DHT22;49183;51.380;0.098;2022-08-14T13:36:14;33.70;26.70
63094;DHT22;49183;51.380;0.098;2022-08-14T13:39:35;33.40;26.90
63094;DHT22;49183;51.380;0.098;2022-08-14T13:42:44;33.10;27.40
63094;DHT22;49183;51.380;0.098;2022-08-14T13:45:47;32.80;27.20
63094;DHT22;49183;51.380;0.098;2022-08-14T13:48:49;32.80;26.90
63094;DHT22;49183;51.380;0.098;2022-08-14T13:51:52;33.00;26.50
63094;DHT22;49183;51.380;0.098;2022-08-14T13:55:17;33.40;26.20
63094;DHT22;49183;51.380;0.098;2022-08-14T13:58:20;33.70;25.40
63094;DHT22;49183;51.380;0.098;2022-08-14T14:01:25;33.70;25.00
63094;DHT22;49183;51.380;0.098;2022-08-14T14:04:30;33.80;24.90
63094;DHT22;49183;51.380;0.098;2022-08-14T14:07:35;33.80;24.90
63094;DHT22;49183;51.380;0.098;2022-08-14T14:10:40;34.00;24.90
63094;DHT22;49183;51.380;0.098;2022-08-14T14:13:45;33.90;25.10
63094;DHT22;49183;51.380;0.098;2022-08-14T14:16:47;33.70;25.50
63094;DHT22;49183;51.380;0.098;2022-08-14T14:19:53;33.80;25.60
63094;DHT22;49183;51.380;0.098;2022-08-14T14:22:55;33.90;25.10
63094;DHT22;49183;51.380;0.098;2022-08-14T14:25:58;33.90;24.80
63094;DHT22;49183;51.380;0.098;2022-08-14T14:29:00;33.90;24.70
63094;DHT22;49183;51.380;0.098;2022-08-14T14:32:03;34.00;24.70
63094;DHT22;49183;51.380;0.098;2022-08-14T14:35:16;34.10;24.80
63094;DHT22;49183;51.380;0.098;2022-08-14T14:38:21;34.30;24.10
63094;DHT22;49183;51.380;0.098;2022-08-14T14:41:27;34.50;23.90
63094;DHT22;49183;51.380;0.098;2022-08-14T14:44:35;34.60;23.30
63094;DHT22;49183;51.380;0.098;2022-08-14T14:47:38;34.70;23.80
63094;DHT22;49183;51.380;0.098;2022-08-14T14:50:45;34.70;23.90
63094;DHT22;49183;51.380;0.098;2022-08-14T14:53:50;34.70;23.60
63094;DHT22;49183;51.380;0.098;2022-08-14T14:56:52;34.50;24.00
63094;DHT22;49183;51.380;0.098;2022-08-14T14:59:55;34.40;24.00
63094;DHT22;49183;51.380;0.098;2022-08-14T15:02:59;34.20;24.00
63094;DHT22;49183;51.380;0.098;2022-08-14T15:06:03;34.20;23.90
63094;DHT22;49183;51.380;0.098;2022-08-14T15:09:05;34.10;23.70
63094;DHT22;49183;51.380;0.098;2022-08-14T15:12:06;34.00;23.60
63094;DHT22;49183;51.380;0.098;2022-08-14T15:15:27;33.70;23.50
63094;DHT22;49183;51.380;0.098;2022-08-14T15:18:28;33.50;23.50
63094;DHT22;49183;51.380;0.098;2022-08-14T15:21:35;33.80;24.10
63094;DHT22;49183;51.380;0.098;2022-08-14T15:24:37;34.00;23.80
63094;DHT22;49183;51.380;0.098;2022-08-14T15:27:38;34.10;23.60
63094;DHT22;49183;51.380;0.098;2022-08-14T15:30:42;34.30;23.30
63094;DHT22;49183;51.380;0.098;2022-08-14T15:33:45;34.40;23.20
63094;DHT22;49183;51.380;0.098;2022-08-14T15:37:24;34.60;23.10
63094;DHT22;49183;51.380;0.098;2022-08-14T15:40:20;34.70;23.00
63094;DHT22;49183;51.380;0.098;2022-08-14T15:43:26;34.70;23.10
63094;DHT22;49183;51.380;0.098;2022-08-14T15:46:28;34.80;23.20
63094;DHT22;49183;51.380;0.098;2022-08-14T15:49:32;34.80;23.40
63094;DHT22;49183;51.380;0.098;2022-08-14T15:52:35;34.90;23.40
63094;DHT22;49183;51.380;0.098;2022-08-14T15:55:37;34.90;23.40
63094;DHT22;49183;51.380;0.098;2022-08-14T15:58:39;34.90;23.20
63094;DHT22;49183;51.380;0.098;2022-08-14T16:01:40;35.00;23.20
63094;DHT22;49183;51.380;0.098;2022-08-14T16:04:44;35.10;22.90
63094;DHT22;49183;51.380;0.098;2022-08-14T16:07:45;34.90;22.60
63094;DHT22;49183;51.380;0.098;2022-08-14T16:10:47;34.70;22.80
63094;DHT22;49183;51.380;0.098;2022-08-14T16:13:49;34.50;23.00
63094;DHT22;49183;51.380;0.098;2022-08-14T16:16:53;34.20;23.30
63094;DHT22;49183;51.380;0.098;2022-08-14T16:19:54;33.90;23.50
63094;DHT22;49183;51.380;0.098;2022-08-14T16:22:56;33.70;23.60
63094;DHT22;49183;51.380;0.098;2022-08-14T16:25:59;33.50;24.00
63094;DHT22;49183;51.380;0.098;2022-08-14T16:29:05;33.50;24.10
63094;DHT22;49183;51.380;0.098;2022-08-14T16:32:09;33.40;24.60
63094;DHT22;49183;51.380;0.098;2022-08-14T16:35:33;33.30;25.10
63094;DHT22;49183;51.380;0.098;2022-08-14T16:38:45;33.20;24.80
63094;DHT22;49183;51.380;0.098;2022-08-14T16:41:46;33.30;24.90
63094;DHT22;49183;51.380;0.098;2022-08-14T16:45:09;33.30;24.70
63094;DHT22;49183;51.380;0.098;2022-08-14T16:48:13;33.30;24.80
63094;DHT22;49183;51.380;0.098;2022-08-14T16:51:57;33.40;24.70
63094;DHT22;49183;51.380;0.098;2022-08-14T16:55:18;33.70;24.80
63094;DHT22;49183;51.380;0.098;2022-08-14T16:58:21;33.80;24.20
63094;DHT22;49183;51.380;0.098;2022-08-14T17:01:23;33.80;24.40
63094;DHT22;49183;51.380;0.098;2022-08-14T17:04:27;33.80;24.40
63094;DHT22;49183;51.380;0.098;2022-08-14T17:07:35;33.80;24.30
63094;DHT22;49183;51.380;0.098;2022-08-14T17:13:43;33.70;24.60
63094;DHT22;49183;51.380;0.098;2022-08-14T17:16:54;33.70;24.80
63094;DHT22;49183;51.380;0.098;2022-08-14T17:20:01;33.70;24.30
63094;DHT22;49183;51.380;0.098;2022-08-14T17:23:23;33.80;24.60
63094;DHT22;49183;51.380;0.098;2022-08-14T17:29:36;34.30;24.20
63094;DHT22;49183;51.380;0.098;2022-08-14T17:32:43;34.40;24.00
63094;DHT22;49183;51.380;0.098;2022-08-14T17:36:17;34.20;23.80
63094;DHT22;49183;51.380;0.098;2022-08-14T17:39:22;33.70;24.20
63094;DHT22;49183;51.380;0.098;2022-08-14T17:45:49;33.20;25.50
63094;DHT22;49183;51.380;0.098;2022-08-14T17:49:11;33.40;25.20
63094;DHT22;49183;51.380;0.098;2022-08-14T17:52:19;33.50;24.90
63094;DHT22;49183;51.380;0.098;2022-08-14T17:55:30;33.60;24.90
63094;DHT22;49183;51.380;0.098;2022-08-14T17:58:49;33.30;25.40
63094;DHT22;49183;51.380;0.098;2022-08-14T18:01:51;32.90;25.90
63094;DHT22;49183;51.380;0.098;2022-08-14T18:04:55;32.50;26.50
63094;DHT22;49183;51.380;0.098;2022-08-14T18:07:57;32.40;26.40
63094;DHT22;49183;51.380;0.098;2022-08-14T18:11:20;32.40;26.00
63094;DHT22;49183;51.380;0.098;2022-08-14T18:14:37;32.00;26.10
63094;DHT22;49183;51.380;0.098;2022-08-14T18:18:59;31.80;27.10
63094;DHT22;49183;51.380;0.098;2022-08-14T18:22:43;31.20;27.80
63094;DHT22;49183;51.380;0.098;2022-08-14T18:26:24;30.60;27.80
63094;DHT22;49183;51.380;0.098;2022-08-14T18:29:29;30.20;28.30
63094;DHT22;49183;51.380;0.098;2022-08-14T18:32:43;29.80;28.70
63094;DHT22;49183;51.380;0.098;2022-08-14T18:35:50;29.50;29.30
63094;DHT22;49183;51.380;0.098;2022-08-14T18:39:23;29.30;29.80
63094;DHT22;49183;51.380;0.098;2022-08-14T18:42:47;29.10;30.00
63094;DHT22;49183;51.380;0.098;2022-08-14T18:45:58;28.90;30.10
63094;DHT22;49183;51.380;0.098;2022-08-14T18:49:19;28.70;30.90
63094;DHT22;49183;51.380;0.098;2022-08-14T18:55:38;28.40;31.20
63094;DHT22;49183;51.380;0.098;2022-08-14T18:58:51;28.30;31.30
63094;DHT22;49183;51.380;0.098;2022-08-14T19:01:52;28.20;31.50
63094;DHT22;49183;51.380;0.098;2022-08-14T19:05:06;28.10;31.80
63094;DHT22;49183;51.380;0.098;2022-08-14T19:14:44;27.50;32.90
63094;DHT22;49183;51.380;0.098;2022-08-14T19:17:50;27.30;33.50
63094;DHT22;49183;51.380;0.098;2022-08-14T19:21:05;27.00;33.90
63094;DHT22;49183;51.380;0.098;2022-08-14T19:24:17;26.80;34.60
63094;DHT22;49183;51.380;0.098;2022-08-14T19:27:22;26.60;35.60
63094;DHT22;49183;51.380;0.098;2022-08-14T19:30:24;26.30;36.10
63094;DHT22;49183;51.380;0.098;2022-08-14T19:36:46;25.80;37.60
63094;DHT22;49183;51.380;0.098;2022-08-14T19:39:55;25.60;38.00
63094;DHT22;49183;51.380;0.098;2022-08-14T19:43:08;25.40;38.50
63094;DHT22;49183;51.380;0.098;2022-08-14T19:46:29;25.20;39.10
63094;DHT22;49183;51.380;0.098;2022-08-14T19:49:49;25.00;39.80
63094;DHT22;49183;51.380;0.098;2022-08-14T19:53:02;24.80;40.40
63094;DHT22;49183;51.380;0.098;2022-08-14T19:56:04;24.60;40.90
63094;DHT22;49183;51.380;0.098;2022-08-14T19:59:16;24.40;41.20
63094;DHT22;49183;51.380;0.098;2022-08-14T20:02:39;24.30;41.60
63094;DHT22;49183;51.380;0.098;2022-08-14T20:05:59;24.10;42.00
63094;DHT22;49183;51.380;0.098;2022-08-14T20:09:05;23.90;42.60
63094;DHT22;49183;51.380;0.098;2022-08-14T20:12:27;23.80;42.80
63094;DHT22;49183;51.380;0.098;2022-08-14T20:15:44;23.60;43.20
63094;DHT22;49183;51.380;0.098;2022-08-14T20:18:46;23.40;43.50